sensor_id;sensor_type;location;lat;lon;timestamp;pressure;altitude;pressure_sealevel;temperature;humidity
68193;BME280;55012;47.562;18.414;2023-03-18T00:02:23;99380.69;;;2.06;100.00
68193;BME280;55012;47.562;18.414;2023-03-18T00:04:48;99375.34;;;2.06;100.00
68193;BME280;55012;47.562;18.414;2023-03-18T00:07:15;99379.63;;;2.07;100.00
68193;BME280;55012;47.562;18.414;2023-03-18T00:09:41;99377.22;;;2.06;100.00
68193;BME280;55012;47.562;18.414;2023-03-18T00:12:06;99380.97;;;2.05;100.00
68193;BME280;55012;47.562;18.414;2023-03-18T00:14:34;99372.75;;;2.01;100.00
68193;BME280;55012;47.562;18.414;2023-03-18T00:17:00;99374.63;;;2.01;100.00
68193;BME280;55012;47.562;18.414;2023-03-18T00:19:26;99358.91;;;1.99;100.00
68193;BME280;55012;47.562;18.414;2023-03-18T00:21:51;99351.19;;;1.97;100.00
68193;BME280;55012;47.562;18.414;2023-03-18T00:24:17;99343.47;;;1.96;100.00
68193;BME280;55012;47.562;18.414;2023-03-18T00:26:43;99336.53;;;1.95;100.00
68193;BME280;55012;47.562;18.414;2023-03-18T00:29:09;99346.38;;;2.00;100.00
68193;BME280;55012;47.562;18.414;2023-03-18T00:31:35;99336.50;;;2.00;100.00
68193;BME280;55012;47.562;18.414;2023-03-18T00:34:02;99338.13;;;1.96;100.00
68193;BME280;55012;47.562;18.414;2023-03-18T00:36:28;99335.75;;;1.94;100.00
68193;BME280;55012;47.562;18.414;2023-03-18T00:38:55;99316.88;;;1.91;100.00
68193;BME280;55012;47.562;18.414;2023-03-18T00:41:28;99316.88;;;1.91;100.00
68193;BME280;55012;47.562;18.414;2023-03-18T00:43:55;99320.09;;;1.88;100.00
68193;BME280;55012;47.562;18.414;2023-03-18T00:46:26;99317.22;;;1.84;100.00
68193;BME280;55012;47.562;18.414;2023-03-18T00:48:55;99302.84;;;1.80;100.00
68193;BME280;55012;47.562;18.414;2023-03-18T00:51:22;99301.53;;;1.78;100.00
68193;BME280;55012;47.562;18.414;2023-03-18T00:53:51;99286.13;;;1.75;100.00
68193;BME280;55012;47.562;18.414;2023-03-18T00:56:19;99290.13;;;1.72;100.00
68193;BME280;55012;47.562;18.414;2023-03-18T00:58:46;99271.75;;;1.71;100.00
68193;BME280;55012;47.562;18.414;2023-03-18T01:01:12;99265.13;;;1.68;100.00
68193;BME280;55012;47.562;18.414;2023-03-18T01:03:39;99258.72;;;1.69;100.00
68193;BME280;55012;47.562;18.414;2023-03-18T01:06:10;99258.47;;;1.65;100.00
68193;BME280;55012;47.562;18.414;2023-03-18T01:08:36;99254.22;;;1.64;100.00
68193;BME280;55012;47.562;18.414;2023-03-18T01:11:02;99251.34;;;1.61;100.00
68193;BME280;55012;47.562;18.414;2023-03-18T01:13:28;99237.28;;;1.55;100.00
68193;BME280;55012;47.562;18.414;2023-03-18T01:15:54;99243.69;;;1.54;100.00
68193;BME280;55012;47.562;18.414;2023-03-18T01:18:21;99229.34;;;1.50;100.00
68193;BME280;55012;47.562;18.414;2023-03-18T01:20:46;99223.78;;;1.47;100.00
68193;BME280;55012;47.562;18.414;2023-03-18T01:23:13;99220.63;;;1.45;100.00
68193;BME280;55012;47.562;18.414;2023-03-18T01:25:38;99221.69;;;1.44;100.00
68193;BME280;55012;47.562;18.414;2023-03-18T01:28:04;99227.56;;;1.40;100.00
68193;BME280;55012;47.562;18.414;2023-03-18T01:30:30;99226.00;;;1.39;100.00
68193;BME280;55012;47.562;18.414;2023-03-18T01:32:56;99231.63;;;1.38;100.00
68193;BME280;55012;47.562;18.414;2023-03-18T01:35:23;99238.03;;;1.37;100.00
68193;BME280;55012;47.562;18.414;2023-03-18T01:37:50;99245.22;;;1.36;100.00
68193;BME280;55012;47.562;18.414;2023-03-18T01:40:16;99246.59;;;1.34;100.00
68193;BME280;55012;47.562;18.414;2023-03-18T01:42:42;99246.84;;;1.32;100.00
68193;BME280;55012;47.562;18.414;2023-03-18T01:45:26;99255.66;;;1.33;100.00
68193;BME280;55012;47.562;18.414;2023-03-18T01:47:53;99250.59;;;1.31;100.00
68193;BME280;55012;47.562;18.414;2023-03-18T01:50:32;99246.06;;;1.32;100.00
68193;BME280;55012;47.562;18.414;2023-03-18T01:53:02;99243.69;;;1.30;100.00
68193;BME280;55012;47.562;18.414;2023-03-18T01:55:30;99245.06;;;1.28;100.00
68193;BME280;55012;47.562;18.414;2023-03-18T01:57:56;99249.00;;;1.30;100.00
68193;BME280;55012;47.562;18.414;2023-03-18T02:00:23;99243.97;;;1.29;100.00
68193;BME280;55012;47.562;18.414;2023-03-18T02:02:50;99244.25;;;1.27;100.00
68193;BME280;55012;47.562;18.414;2023-03-18T02:05:23;99246.44;;;1.25;100.00
68193;BME280;55012;47.562;18.414;2023-03-18T02:07:50;99235.31;;;1.18;100.00
68193;BME280;55012;47.562;18.414;2023-03-18T02:10:23;99243.50;;;1.22;100.00
68193;BME280;55012;47.562;18.414;2023-03-18T02:12:58;99250.44;;;1.23;100.00
68193;BME280;55012;47.562;18.414;2023-03-18T02:15:28;99251.50;;;1.22;100.00
68193;BME280;55012;47.562;18.414;2023-03-18T02:18:11;99247.84;;;1.18;100.00
68193;BME280;55012;47.562;18.414;2023-03-18T02:26:17;99259.31;;;1.13;100.00
68193;BME280;55012;47.562;18.414;2023-03-18T02:28:49;99260.69;;;1.10;100.00
68193;BME280;55012;47.562;18.414;2023-03-18T02:31:16;99256.97;;;1.06;100.00
68193;BME280;55012;47.562;18.414;2023-03-18T02:33:43;99255.69;;;1.04;100.00
68193;BME280;55012;47.562;18.414;2023-03-18T02:36:20;99244.53;;;1.02;100.00
68193;BME280;55012;47.562;18.414;2023-03-18T02:38:46;99239.50;;;1.00;100.00
68193;BME280;55012;47.562;18.414;2023-03-18T02:41:22;99235.75;;;1.01;100.00
68193;BME280;55012;47.562;18.414;2023-03-18T02:43:48;99231.50;;;1.00;100.00
68193;BME280;55012;47.562;18.414;2023-03-18T02:49:00;99237.06;;;0.99;100.00
68193;BME280;55012;47.562;18.414;2023-03-18T02:51:27;99238.72;;;0.95;100.00
68193;BME280;55012;47.562;18.414;2023-03-18T02:54:01;99253.34;;;0.97;100.00
68193;BME280;55012;47.562;18.414;2023-03-18T02:56:28;99250.97;;;0.96;100.00
68193;BME280;55012;47.562;18.414;2023-03-18T02:58:53;99244.06;;;0.95;100.00
68193;BME280;55012;47.562;18.414;2023-03-18T03:01:20;99247.81;;;0.94;100.00
68193;BME280;55012;47.562;18.414;2023-03-18T03:03:47;99248.88;;;0.93;100.00
68193;BME280;55012;47.562;18.414;2023-03-18T03:06:12;99254.75;;;0.90;100.00
68193;BME280;55012;47.562;18.414;2023-03-18T03:08:38;99259.81;;;0.91;100.00
68193;BME280;55012;47.562;18.414;2023-03-18T03:11:04;99262.75;;;0.90;100.00
68193;BME280;55012;47.562;18.414;2023-03-18T03:13:30;99260.34;;;0.88;100.00
68193;BME280;55012;47.562;18.414;2023-03-18T03:15:55;99259.56;;;0.88;100.00
68193;BME280;55012;47.562;18.414;2023-03-18T03:18:21;99255.09;;;0.83;100.00
68193;BME280;55012;47.562;18.414;2023-03-18T03:20:49;99244.44;;;0.83;100.00
68193;BME280;55012;47.562;18.414;2023-03-18T03:23:15;99249.22;;;0.81;100.00
68193;BME280;55012;47.562;18.414;2023-03-18T03:25:42;99245.00;;;0.80;100.00
68193;BME280;55012;47.562;18.414;2023-03-18T03:28:11;99237.56;;;0.77;100.00
68193;BME280;55012;47.562;18.414;2023-03-18T03:30:38;99243.97;;;0.76;100.00
68193;BME280;55012;47.562;18.414;2023-03-18T03:33:03;99243.44;;;0.74;100.00
68193;BME280;55012;47.562;18.414;2023-03-18T03:35:30;99250.63;;;0.73;100.00
68193;BME280;55012;47.562;18.414;2023-03-18T03:37:55;99258.63;;;0.73;100.00
68193;BME280;55012;47.562;18.414;2023-03-18T03:40:21;99252.75;;;0.76;100.00
68193;BME280;55012;47.562;18.414;2023-03-18T03:42:47;99251.16;;;0.75;100.00
68193;BME280;55012;47.562;18.414;2023-03-18T03:45:15;99260.75;;;0.76;100.00
68193;BME280;55012;47.562;18.414;2023-03-18T03:47:42;99262.31;;;0.77;100.00
68193;BME280;55012;47.562;18.414;2023-03-18T03:50:09;99260.97;;;0.80;100.00
68193;BME280;55012;47.562;18.414;2023-03-18T03:52:35;99267.88;;;0.81;100.00
68193;BME280;55012;47.562;18.414;2023-03-18T03:55:02;99273.47;;;0.79;100.00
68193;BME280;55012;47.562;18.414;2023-03-18T03:57:28;99275.63;;;0.77;100.00
68193;BME280;55012;47.562;18.414;2023-03-18T03:59:54;99284.69;;;0.76;100.00
68193;BME280;55012;47.562;18.414;2023-03-18T04:02:20;99291.09;;;0.75;100.00
68193;BME280;55012;47.562;18.414;2023-03-18T04:04:48;99287.09;;;0.73;100.00
68193;BME280;55012;47.562;18.414;2023-03-18T04:07:15;99295.09;;;0.73;100.00
68193;BME280;55012;47.562;18.414;2023-03-18T04:09:40;99293.50;;;0.72;100.00
68193;BME280;55012;47.562;18.414;2023-03-18T04:12:07;99295.66;;;0.70;100.00
68193;BME280;55012;47.562;18.414;2023-03-18T04:14:34;99291.16;;;0.65;100.00
68193;BME280;55012;47.562;18.414;2023-03-18T04:16:59;99292.25;;;0.64;100.00
68193;BME280;55012;47.562;18.414;2023-03-18T04:19:26;99286.41;;;0.62;100.00
68193;BME280;55012;47.562;18.414;2023-03-18T04:21:54;99280.56;;;0.60;100.00
68193;BME280;55012;47.562;18.414;2023-03-18T04:24:21;99276.06;;;0.55;100.00
68193;BME280;55012;47.562;18.414;2023-03-18T04:26:47;99286.47;;;0.52;100.00
68193;BME280;55012;47.562;18.414;2023-03-18T04:29:13;99271.63;;;0.46;100.00
68193;BME280;55012;47.562;18.414;2023-03-18T04:31:38;99271.91;;;0.44;100.00
68193;BME280;55012;47.562;18.414;2023-03-18T04:34:04;99257.81;;;0.44;100.00
68193;BME280;55012;47.562;18.414;2023-03-18T04:36:29;99258.88;;;0.43;100.00
68193;BME280;55012;47.562;18.414;2023-03-18T04:38:55;99258.34;;;0.41;100.00
68193;BME280;55012;47.562;18.414;2023-03-18T04:41:21;99250.13;;;0.37;100.00
68193;BME280;55012;47.562;18.414;2023-03-18T04:43:47;99252.00;;;0.37;100.00
68193;BME280;55012;47.562;18.414;2023-03-18T04:46:13;99245.09;;;0.36;100.00
68193;BME280;55012;47.562;18.414;2023-03-18T04:48:39;99242.97;;;0.33;100.00
68193;BME280;55012;47.562;18.414;2023-03-18T04:51:05;99237.63;;;0.33;100.00
68193;BME280;55012;47.562;18.414;2023-03-18T04:53:33;99237.41;;;0.29;100.00
68193;BME280;55012;47.562;18.414;2023-03-18T04:55:58;99230.50;;;0.28;100.00
68193;BME280;55012;47.562;18.414;2023-03-18T04:58:24;99224.66;;;0.26;100.00
68193;BME280;55012;47.562;18.414;2023-03-18T05:00:50;99203.13;;;0.22;100.00
68193;BME280;55012;47.562;18.414;2023-03-18T05:03:17;99217.47;;;0.26;100.00
68193;BME280;55012;47.562;18.414;2023-03-18T05:05:43;99205.25;;;0.25;100.00
68193;BME280;55012;47.562;18.414;2023-03-18T05:08:09;99197.28;;;0.25;100.00
68193;BME280;55012;47.562;18.414;2023-03-18T05:10:34;99200.44;;;0.27;100.00
68193;BME280;55012;47.562;18.414;2023-03-18T05:13:00;99196.72;;;0.28;100.00
68193;BME280;55012;47.562;18.414;2023-03-18T05:15:26;99189.22;;;0.31;100.00
68193;BME280;55012;47.562;18.414;2023-03-18T05:17:52;99180.97;;;0.32;100.00
68193;BME280;55012;47.562;18.414;2023-03-18T05:20:18;99180.94;;;0.37;100.00
68193;BME280;55012;47.562;18.414;2023-03-18T05:22:44;99189.94;;;0.41;100.00
68193;BME280;55012;47.562;18.414;2023-03-18T05:25:09;99177.69;;;0.45;100.00
68193;BME280;55012;47.562;18.414;2023-03-18T05:27:36;99187.25;;;0.46;100.00
68193;BME280;55012;47.562;18.414;2023-03-18T05:30:03;99195.47;;;0.50;100.00
68193;BME280;55012;47.562;18.414;2023-03-18T05:32:29;99201.03;;;0.53;100.00
68193;BME280;55012;47.562;18.414;2023-03-18T05:34:56;99200.75;;;0.55;100.00
68193;BME280;55012;47.562;18.414;2023-03-18T05:37:22;99202.59;;;0.60;100.00
68193;BME280;55012;47.562;18.414;2023-03-18T05:39:48;99202.00;;;0.63;100.00
68193;BME280;55012;47.562;18.414;2023-03-18T05:42:15;99209.97;;;0.68;100.00
68193;BME280;55012;47.562;18.414;2023-03-18T05:44:40;99211.25;;;0.70;100.00
68193;BME280;55012;47.562;18.414;2023-03-18T05:47:09;99210.69;;;0.73;100.00
68193;BME280;55012;47.562;18.414;2023-03-18T05:49:35;99213.59;;;0.77;100.00
68193;BME280;55012;47.562;18.414;2023-03-18T05:52:00;99218.34;;;0.80;100.00
68193;BME280;55012;47.562;18.414;2023-03-18T05:54:27;99220.69;;;0.87;100.00
68193;BME280;55012;47.562;18.414;2023-03-18T05:56:53;99215.88;;;0.89;100.00
68193;BME280;55012;47.562;18.414;2023-03-18T05:59:22;99215.34;;;0.92;100.00
68193;BME280;55012;47.562;18.414;2023-03-18T06:01:48;99222.00;;;0.89;100.00
68193;BME280;55012;47.562;18.414;2023-03-18T06:04:14;99225.41;;;0.95;100.00
68193;BME280;55012;47.562;18.414;2023-03-18T06:06:42;99228.28;;;0.98;100.00
68193;BME280;55012;47.562;18.414;2023-03-18T06:09:09;99223.22;;;1.02;100.00
68193;BME280;55012;47.562;18.414;2023-03-18T06:11:35;99222.09;;;1.08;100.00
68193;BME280;55012;47.562;18.414;2023-03-18T06:14:02;99221.47;;;1.16;100.00
68193;BME280;55012;47.562;18.414;2023-03-18T06:16:29;99217.38;;;1.24;100.00
68193;BME280;55012;47.562;18.414;2023-03-18T06:18:55;99224.47;;;1.33;100.00
68193;BME280;55012;47.562;18.414;2023-03-18T06:21:21;99225.72;;;1.41;100.00
68193;BME280;55012;47.562;18.414;2023-03-18T06:23:47;99220.56;;;1.50;100.00
68193;BME280;55012;47.562;18.414;2023-03-18T06:26:14;99220.94;;;1.62;100.00
68193;BME280;55012;47.562;18.414;2023-03-18T06:28:39;99230.13;;;1.75;100.00
68193;BME280;55012;47.562;18.414;2023-03-18T06:31:05;99237.97;;;1.85;100.00
68193;BME280;55012;47.562;18.414;2023-03-18T06:33:30;99252.31;;;1.89;100.00
68193;BME280;55012;47.562;18.414;2023-03-18T06:35:57;99253.84;;;1.95;100.00
68193;BME280;55012;47.562;18.414;2023-03-18T06:38:24;99261.69;;;2.05;100.00
68193;BME280;55012;47.562;18.414;2023-03-18T06:40:50;99242.72;;;2.07;100.00
68193;BME280;55012;47.562;18.414;2023-03-18T06:43:15;99263.03;;;2.27;100.00
68193;BME280;55012;47.562;18.414;2023-03-18T06:45:41;99259.91;;;2.38;100.00
68193;BME280;55012;47.562;18.414;2023-03-18T06:48:07;99265.91;;;2.49;100.00
68193;BME280;55012;47.562;18.414;2023-03-18T06:50:34;99271.88;;;2.60;100.00
68193;BME280;55012;47.562;18.414;2023-03-18T06:53:01;99276.75;;;2.71;100.00
68193;BME280;55012;47.562;18.414;2023-03-18T06:55:27;99283.53;;;2.83;100.00
68193;BME280;55012;47.562;18.414;2023-03-18T06:57:53;99300.38;;;2.97;100.00
68193;BME280;55012;47.562;18.414;2023-03-18T07:00:21;99316.53;;;3.05;100.00
68193;BME280;55012;47.562;18.414;2023-03-18T07:02:47;99331.09;;;3.13;100.00
68193;BME280;55012;47.562;18.414;2023-03-18T07:05:12;99335.50;;;3.23;100.00
68193;BME280;55012;47.562;18.414;2023-03-18T07:07:39;99343.06;;;3.34;100.00
68193;BME280;55012;47.562;18.414;2023-03-18T07:10:07;99344.75;;;3.44;100.00
68193;BME280;55012;47.562;18.414;2023-03-18T07:12:33;99349.91;;;3.54;100.00
68193;BME280;55012;47.562;18.414;2023-03-18T07:14:58;99355.66;;;3.61;100.00
68193;BME280;55012;47.562;18.414;2023-03-18T07:17:24;99364.88;;;3.69;100.00
68193;BME280;55012;47.562;18.414;2023-03-18T07:19:49;99376.50;;;3.78;100.00
68193;BME280;55012;47.562;18.414;2023-03-18T07:22:16;99377.19;;;3.84;100.00
68193;BME280;55012;47.562;18.414;2023-03-18T07:24:42;99385.13;;;3.89;100.00
68193;BME280;55012;47.562;18.414;2023-03-18T07:27:09;99397.81;;;3.97;100.00
68193;BME280;55012;47.562;18.414;2023-03-18T07:29:34;99406.84;;;4.01;100.00
68193;BME280;55012;47.562;18.414;2023-03-18T07:32:00;99411.00;;;4.07;100.00
68193;BME280;55012;47.562;18.414;2023-03-18T07:34:26;99415.97;;;4.14;100.00
68193;BME280;55012;47.562;18.414;2023-03-18T07:36:52;99418.53;;;4.19;100.00
68193;BME280;55012;47.562;18.414;2023-03-18T07:39:18;99424.69;;;4.19;100.00
68193;BME280;55012;47.562;18.414;2023-03-18T07:41:44;99431.22;;;4.27;100.00
68193;BME280;55012;47.562;18.414;2023-03-18T07:44:09;99437.28;;;4.33;100.00
68193;BME280;55012;47.562;18.414;2023-03-18T07:46:35;99432.59;;;4.38;100.00
68193;BME280;55012;47.562;18.414;2023-03-18T07:49:00;99452.53;;;4.46;100.00
68193;BME280;55012;47.562;18.414;2023-03-18T07:51:27;99452.16;;;4.53;100.00
68193;BME280;55012;47.562;18.414;2023-03-18T07:53:52;99457.59;;;4.61;100.00
68193;BME280;55012;47.562;18.414;2023-03-18T07:56:18;99468.72;;;4.68;100.00
68193;BME280;55012;47.562;18.414;2023-03-18T07:58:44;99485.66;;;4.77;100.00
68193;BME280;55012;47.562;18.414;2023-03-18T08:01:10;99499.94;;;4.87;100.00
68193;BME280;55012;47.562;18.414;2023-03-18T08:03:36;99500.63;;;4.92;100.00
68193;BME280;55012;47.562;18.414;2023-03-18T08:06:02;99517.59;;;5.01;100.00
68193;BME280;55012;47.562;18.414;2023-03-18T08:08:28;99519.56;;;5.10;100.00
68193;BME280;55012;47.562;18.414;2023-03-18T08:10:57;99536.84;;;5.17;100.00
68193;BME280;55012;47.562;18.414;2023-03-18T08:13:25;99551.13;;;5.26;100.00
68193;BME280;55012;47.562;18.414;2023-03-18T08:15:51;99559.06;;;5.31;100.00
68193;BME280;55012;47.562;18.414;2023-03-18T08:18:17;99570.47;;;5.37;100.00
68193;BME280;55012;47.562;18.414;2023-03-18T08:20:42;99593.91;;;5.45;100.00
68193;BME280;55012;47.562;18.414;2023-03-18T08:23:09;99612.47;;;5.55;100.00
68193;BME280;55012;47.562;18.414;2023-03-18T08:25:34;99615.53;;;5.62;100.00
68193;BME280;55012;47.562;18.414;2023-03-18T08:28:00;99622.06;;;5.70;100.00
68193;BME280;55012;47.562;18.414;2023-03-18T08:30:25;99620.28;;;5.79;100.00
68193;BME280;55012;47.562;18.414;2023-03-18T08:32:53;99624.41;;;5.85;100.00
68193;BME280;55012;47.562;18.414;2023-03-18T08:35:20;99631.44;;;5.95;100.00
68193;BME280;55012;47.562;18.414;2023-03-18T08:37:47;99647.16;;;6.02;100.00
68193;BME280;55012;47.562;18.414;2023-03-18T08:40:13;99644.06;;;6.08;100.00
68193;BME280;55012;47.562;18.414;2023-03-18T08:42:39;99650.91;;;6.14;100.00
68193;BME280;55012;47.562;18.414;2023-03-18T08:45:05;99660.13;;;6.22;100.00
68193;BME280;55012;47.562;18.414;2023-03-18T08:47:31;99662.25;;;6.34;100.00
68193;BME280;55012;47.562;18.414;2023-03-18T08:49:56;99660.59;;;6.46;100.00
68193;BME280;55012;47.562;18.414;2023-03-18T08:52:22;99663.03;;;6.57;100.00
68193;BME280;55012;47.562;18.414;2023-03-18T08:54:47;99660.28;;;6.70;100.00
68193;BME280;55012;47.562;18.414;2023-03-18T08:57:13;99666.31;;;6.85;100.00
68193;BME280;55012;47.562;18.414;2023-03-18T08:59:40;99670.63;;;6.94;100.00
68193;BME280;55012;47.562;18.414;2023-03-18T09:02:06;99677.34;;;7.06;100.00
68193;BME280;55012;47.562;18.414;2023-03-18T09:04:32;99682.28;;;7.12;100.00
68193;BME280;55012;47.562;18.414;2023-03-18T09:06:58;99684.03;;;7.17;100.00
68193;BME280;55012;47.562;18.414;2023-03-18T09:09:25;99689.28;;;7.22;100.00
68193;BME280;55012;47.562;18.414;2023-03-18T09:11:50;99685.16;;;7.24;100.00
68193;BME280;55012;47.562;18.414;2023-03-18T09:14:16;99686.44;;;7.27;100.00
68193;BME280;55012;47.562;18.414;2023-03-18T09:16:41;99697.72;;;7.29;100.00
68193;BME280;55012;47.562;18.414;2023-03-18T09:19:06;99692.13;;;7.25;100.00
68193;BME280;55012;47.562;18.414;2023-03-18T09:21:32;99690.41;;;7.21;100.00
68193;BME280;55012;47.562;18.414;2023-03-18T09:23:58;99692.91;;;7.17;100.00
68193;BME280;55012;47.562;18.414;2023-03-18T09:26:23;99686.59;;;7.22;100.00
68193;BME280;55012;47.562;18.414;2023-03-18T09:28:49;99687.53;;;7.26;100.00
68193;BME280;55012;47.562;18.414;2023-03-18T09:31:14;99680.44;;;7.30;100.00
68193;BME280;55012;47.562;18.414;2023-03-18T09:33:41;99667.47;;;7.32;100.00
68193;BME280;55012;47.562;18.414;2023-03-18T09:36:07;99678.38;;;7.36;100.00
68193;BME280;55012;47.562;18.414;2023-03-18T09:38:34;99660.69;;;7.43;100.00
68193;BME280;55012;47.562;18.414;2023-03-18T09:44:25;99661.50;;;7.61;100.00
68193;BME280;55012;47.562;18.414;2023-03-18T09:57:43;99647.91;;;8.01;100.00
68193;BME280;55012;47.562;18.414;2023-03-18T10:02:44;99644.59;;;8.21;100.00
68193;BME280;55012;47.562;18.414;2023-03-18T10:05:18;99641.25;;;8.24;100.00
68193;BME280;55012;47.562;18.414;2023-03-18T10:07:51;99645.53;;;8.25;100.00
68193;BME280;55012;47.562;18.414;2023-03-18T10:10:24;99632.50;;;8.27;100.00
68193;BME280;55012;47.562;18.414;2023-03-18T10:13:04;99626.50;;;8.30;100.00
68193;BME280;55012;47.562;18.414;2023-03-18T10:15:44;99619.09;;;8.36;100.00
68193;BME280;55012;47.562;18.414;2023-03-18T10:18:19;99622.06;;;8.43;100.00
68193;BME280;55012;47.562;18.414;2023-03-18T10:20:55;99616.81;;;8.47;100.00
68193;BME280;55012;47.562;18.414;2023-03-18T10:26:26;99615.34;;;8.58;100.00
68193;BME280;55012;47.562;18.414;2023-03-18T10:29:00;99613.75;;;8.65;100.00
68193;BME280;55012;47.562;18.414;2023-03-18T10:34:25;99610.84;;;8.79;100.00
68193;BME280;55012;47.562;18.414;2023-03-18T10:37:09;99613.53;;;8.88;100.00
68193;BME280;55012;47.562;18.414;2023-03-18T10:39:41;99593.34;;;8.94;100.00
68193;BME280;55012;47.562;18.414;2023-03-18T10:44:42;99612.34;;;8.97;100.00
68193;BME280;55012;47.562;18.414;2023-03-18T10:47:35;99611.19;;;9.07;100.00
68193;BME280;55012;47.562;18.414;2023-03-18T10:52:55;99605.69;;;9.24;100.00
68193;BME280;55012;47.562;18.414;2023-03-18T10:55:28;99601.84;;;9.34;100.00
68193;BME280;55012;47.562;18.414;2023-03-18T10:57:55;99593.81;;;9.46;100.00
68193;BME280;55012;47.562;18.414;2023-03-18T11:00:26;99603.56;;;9.60;100.00
68193;BME280;55012;47.562;18.414;2023-03-18T11:02:53;99622.63;;;9.63;100.00
68193;BME280;55012;47.562;18.414;2023-03-18T11:05:28;99627.69;;;9.65;100.00
68193;BME280;55012;47.562;18.414;2023-03-18T11:08:07;99630.66;;;9.72;100.00
68193;BME280;55012;47.562;18.414;2023-03-18T11:10:43;99625.88;;;9.77;100.00
68193;BME280;55012;47.562;18.414;2023-03-18T11:13:17;99620.38;;;9.86;100.00
68193;BME280;55012;47.562;18.414;2023-03-18T11:15:48;99612.53;;;9.93;100.00
68193;BME280;55012;47.562;18.414;2023-03-18T11:18:16;99610.16;;;9.92;100.00
68193;BME280;55012;47.562;18.414;2023-03-18T11:20:43;99595.22;;;9.94;100.00
68193;BME280;55012;47.562;18.414;2023-03-18T11:23:18;99601.19;;;10.00;100.00
68193;BME280;55012;47.562;18.414;2023-03-18T11:26:18;99587.81;;;10.03;100.00
68193;BME280;55012;47.562;18.414;2023-03-18T11:28:44;99582.97;;;10.09;100.00
68193;BME280;55012;47.562;18.414;2023-03-18T11:31:16;99587.38;;;10.13;100.00
68193;BME280;55012;47.562;18.414;2023-03-18T11:33:42;99562.72;;;10.15;100.00
68193;BME280;55012;47.562;18.414;2023-03-18T11:36:15;99562.13;;;10.30;100.00
68193;BME280;55012;47.562;18.414;2023-03-18T11:38:42;99549.19;;;10.36;100.00
68193;BME280;55012;47.562;18.414;2023-03-18T11:41:25;99551.44;;;10.46;100.00
68193;BME280;55012;47.562;18.414;2023-03-18T11:43:58;99535.78;;;10.52;100.00
68193;BME280;55012;47.562;18.414;2023-03-18T11:46:28;99560.72;;;10.69;100.00
68193;BME280;55012;47.562;18.414;2023-03-18T11:48:54;99566.13;;;10.82;100.00
68193;BME280;55012;47.562;18.414;2023-03-18T11:51:37;99558.13;;;10.97;100.00
68193;BME280;55012;47.562;18.414;2023-03-18T11:56:50;99558.66;;;11.15;100.00
68193;BME280;55012;47.562;18.414;2023-03-18T12:05:35;99571.06;;;11.29;100.00
68193;BME280;55012;47.562;18.414;2023-03-18T12:07:52;99565.53;;;11.37;100.00
68193;BME280;55012;47.562;18.414;2023-03-18T12:10:33;99562.13;;;11.40;100.00
68193;BME280;55012;47.562;18.414;2023-03-18T12:15:50;99558.97;;;11.38;100.00
68193;BME280;55012;47.562;18.414;2023-03-18T12:24:13;99546.44;;;11.46;100.00
68193;BME280;55012;47.562;18.414;2023-03-18T12:41:17;99544.97;;;11.76;100.00
68193;BME280;55012;47.562;18.414;2023-03-18T12:44:11;99553.66;;;11.82;100.00
68193;BME280;55012;47.562;18.414;2023-03-18T12:49:19;99551.78;;;11.98;100.00
68193;BME280;55012;47.562;18.414;2023-03-18T12:52:07;99550.41;;;12.04;100.00
68193;BME280;55012;47.562;18.414;2023-03-18T12:54:45;99545.63;;;12.14;100.00
68193;BME280;55012;47.562;18.414;2023-03-18T12:57:22;99539.84;;;12.15;100.00
68193;BME280;55012;47.562;18.414;2023-03-18T12:59:59;99541.75;;;12.15;100.00
68193;BME280;55012;47.562;18.414;2023-03-18T13:05:41;99550.00;;;12.18;100.00
68193;BME280;55012;47.562;18.414;2023-03-18T13:10:37;99549.06;;;12.26;100.00
68193;BME280;55012;47.562;18.414;2023-03-18T13:13:06;99550.72;;;12.31;100.00
68193;BME280;55012;47.562;18.414;2023-03-18T13:15:39;99548.19;;;12.38;100.00
68193;BME280;55012;47.562;18.414;2023-03-18T13:18:19;99542.59;;;12.47;100.00
68193;BME280;55012;47.562;18.414;2023-03-18T13:20:48;99535.34;;;12.51;100.00
68193;BME280;55012;47.562;18.414;2023-03-18T13:36:56;99524.19;;;12.87;100.00
68193;BME280;55012;47.562;18.414;2023-03-18T13:40:04;99517.50;;;13.01;100.00
68193;BME280;55012;47.562;18.414;2023-03-18T13:42:40;99518.72;;;13.03;100.00
68193;BME280;55012;47.562;18.414;2023-03-18T13:47:58;99511.19;;;12.97;100.00
68193;BME280;55012;47.562;18.414;2023-03-18T13:50:45;99499.03;;;12.90;100.00
68193;BME280;55012;47.562;18.414;2023-03-18T13:53:32;99507.28;;;12.94;100.00
68193;BME280;55012;47.562;18.414;2023-03-18T13:56:03;99507.00;;;12.99;100.00
68193;BME280;55012;47.562;18.414;2023-03-18T13:58:34;99500.84;;;13.02;100.00
68193;BME280;55012;47.562;18.414;2023-03-18T14:04:18;99502.66;;;13.14;100.00
68193;BME280;55012;47.562;18.414;2023-03-18T14:06:51;99496.16;;;13.18;100.00
68193;BME280;55012;47.562;18.414;2023-03-18T14:09:34;99492.13;;;13.28;100.00
68193;BME280;55012;47.562;18.414;2023-03-18T14:20:43;99492.44;;;13.42;100.00
68193;BME280;55012;47.562;18.414;2023-03-18T14:23:28;99489.88;;;13.49;100.00
68193;BME280;55012;47.562;18.414;2023-03-18T14:37:03;99473.94;;;13.90;100.00
68193;BME280;55012;47.562;18.414;2023-03-18T14:39:41;99461.06;;;15.42;100.00
68193;BME280;55012;47.562;18.414;2023-03-18T14:45:00;99470.22;;;19.23;100.00
68193;BME280;55012;47.562;18.414;2023-03-18T14:47:53;99465.97;;;20.51;89.34
68193;BME280;55012;47.562;18.414;2023-03-18T14:50:41;99477.72;;;21.65;81.49
68193;BME280;55012;47.562;18.414;2023-03-18T14:53:27;99468.88;;;23.41;74.63
68193;BME280;55012;47.562;18.414;2023-03-18T14:55:56;99475.22;;;24.62;63.52